Bates, Oregon
Current Conditions -  °F | °C
As of 9:15 PM on Saturday 25 Oct 2014 (Local Time) from KGCD Reporting Station
Clear Clear  
Wind Chill: 51°   Ceiling: Unl
Heat Index: 51°   Visibility: 10mi
Dew Point: 38°   Wind: 24mph
Humidity: 63%   Direction: 200°SSW
Pressure: 29.82"   Gusts: 32mph
Location:  44.59°N, 118.51°W
Report Text: KGCD 260415Z AUTO 20021G28KT 10SM CLR 10/04 A2982 RMK AO2 T01040036
Loading
Personal Weather Stations






























Interactive Weather Map
Tropical Storm Tracking
New forecast layout! Learn more

10-Day Weather Forecast

Advertisements
Track Severe Weather on mobile